createdAt,value
2023-05-14T00:00:09.007Z,9864.00
2023-05-14T00:01:09.022Z,9765.00
2023-05-14T00:02:09.063Z,9722.00
2023-05-14T00:03:09.199Z,9652.00
2023-05-14T00:04:09.090Z,9637.00
2023-05-14T00:05:09.029Z,9649.00
2023-05-14T00:06:09.066Z,9671.00
2023-05-14T00:07:09.031Z,9698.00
2023-05-14T00:08:09.023Z,9765.00
2023-05-14T00:09:09.002Z,9845.00
2023-05-14T00:10:09.004Z,9882.00
2023-05-14T00:11:09.121Z,9906.00
2023-05-14T00:12:09.076Z,10079.00
2023-05-14T00:13:09.092Z,10163.00
2023-05-14T00:14:09.080Z,10192.00
2023-05-14T00:15:09.082Z,10234.00
2023-05-14T00:16:09.108Z,10236.00
2023-05-14T00:17:09.058Z,10123.00
2023-05-14T00:18:09.083Z,9842.00
2023-05-14T00:19:09.106Z,9781.00
2023-05-14T00:20:09.021Z,9506.00
2023-05-14T00:21:09.046Z,9401.00
2023-05-14T00:22:08.986Z,9386.00
2023-05-14T00:23:08.976Z,9277.00
2023-05-14T00:24:08.945Z,9172.00
2023-05-14T00:25:08.929Z,8976.00
2023-05-14T00:26:08.894Z,8895.00
2023-05-14T00:27:08.890Z,8689.00
2023-05-14T00:28:08.868Z,8516.00
2023-05-14T00:29:08.859Z,8421.00
2023-05-14T00:30:08.854Z,8295.00
2023-05-14T00:31:08.897Z,8306.00
2023-05-14T00:32:08.837Z,8293.00
2023-05-14T00:33:08.842Z,8249.00
2023-05-14T00:34:08.810Z,8200.00
2023-05-14T00:35:08.790Z,8249.00
2023-05-14T00:36:08.771Z,8560.00
2023-05-14T00:37:08.779Z,9225.00
2023-05-14T00:38:08.755Z,9458.00
2023-05-14T00:39:08.724Z,9495.00
2023-05-14T00:40:08.761Z,9714.00
2023-05-14T00:41:08.695Z,9975.00
2023-05-14T00:42:08.673Z,10113.00
2023-05-14T00:43:08.686Z,10189.00
2023-05-14T00:44:08.696Z,10190.00
2023-05-14T00:45:08.669Z,10201.00
2023-05-14T00:46:08.697Z,10293.00
2023-05-14T00:47:09.025Z,10350.00
2023-05-14T00:48:08.769Z,10215.00
2023-05-14T00:49:08.745Z,10265.00
2023-05-14T00:50:09.215Z,10290.00
2023-05-14T00:51:08.876Z,10326.00
2023-05-14T00:52:08.796Z,10328.00
2023-05-14T00:53:08.871Z,10266.00
2023-05-14T00:54:08.872Z,10030.00
2023-05-14T00:55:08.912Z,9917.00
2023-05-14T00:56:09.702Z,9728.00
2023-05-14T00:57:08.980Z,9674.00
2023-05-14T00:58:09.010Z,9748.00
2023-05-14T00:59:09.051Z,9845.00
2023-05-14T01:00:09.081Z,9938.00
2023-05-14T01:01:09.170Z,9889.00
2023-05-14T01:02:09.154Z,9944.00
2023-05-14T01:03:09.395Z,9956.00
2023-05-14T01:04:09.271Z,10023.00
2023-05-14T01:05:09.251Z,10005.00
2023-05-14T01:06:09.225Z,9842.00
2023-05-14T01:07:09.232Z,9704.00
2023-05-14T01:08:09.217Z,9608.00
2023-05-14T01:09:09.221Z,9680.00
2023-05-14T01:10:09.207Z,9492.00
2023-05-14T01:11:09.216Z,9216.00
2023-05-14T01:12:09.182Z,9147.00
2023-05-14T01:13:09.188Z,9207.00
2023-05-14T01:14:09.166Z,9242.00
2023-05-14T01:15:09.190Z,9244.00
2023-05-14T01:16:09.216Z,9211.00
2023-05-14T01:17:09.127Z,9175.00
2023-05-14T01:18:09.155Z,9172.00
2023-05-14T01:19:09.123Z,8898.00
2023-05-14T01:20:09.136Z,8736.00
2023-05-14T01:21:09.101Z,8559.00
2023-05-14T01:22:09.107Z,8402.00
2023-05-14T01:23:09.136Z,8347.00
2023-05-14T01:24:09.147Z,8344.00
2023-05-14T01:25:09.187Z,8629.00
2023-05-14T01:26:10.215Z,8856.00
2023-05-14T01:27:09.242Z,8975.00
2023-05-14T01:28:09.221Z,8975.00
2023-05-14T01:29:09.196Z,8846.00
2023-05-14T01:30:09.198Z,8815.00
2023-05-14T01:31:09.180Z,8638.00
2023-05-14T01:32:09.325Z,8530.00
2023-05-14T01:33:09.203Z,8553.00
2023-05-14T01:34:09.186Z,8694.00
2023-05-14T01:35:09.190Z,8699.00
2023-05-14T01:36:09.200Z,8770.00
2023-05-14T01:37:09.188Z,8694.00
2023-05-14T01:38:09.733Z,8714.00
2023-05-14T01:39:09.159Z,8744.00
2023-05-14T01:40:09.174Z,8792.00
2023-05-14T01:41:09.139Z,8747.00
2023-05-14T01:42:09.161Z,8661.00
2023-05-14T01:43:09.147Z,8628.00
2023-05-14T01:44:09.159Z,8591.00
2023-05-14T01:45:09.113Z,8496.00
2023-05-14T01:46:09.194Z,8429.00
2023-05-14T01:47:09.100Z,8510.00
2023-05-14T01:48:09.150Z,8584.00
2023-05-14T01:49:09.099Z,8612.00
2023-05-14T01:50:09.173Z,8689.00
2023-05-14T01:51:09.086Z,8663.00
2023-05-14T01:52:09.086Z,8675.00
2023-05-14T01:53:09.157Z,8702.00
2023-05-14T01:54:09.094Z,8697.00
2023-05-14T01:55:09.109Z,8743.00
2023-05-14T01:56:09.109Z,8755.00
2023-05-14T01:57:09.084Z,8851.00
2023-05-14T01:58:09.135Z,8783.00
2023-05-14T01:59:09.067Z,8786.00
2023-05-14T02:00:09.069Z,8767.00
2023-05-14T02:01:09.090Z,8781.00
2023-05-14T02:02:09.082Z,8771.00
2023-05-14T02:03:09.134Z,8851.00
2023-05-14T02:04:09.132Z,8927.00
2023-05-14T02:05:09.114Z,8877.00
2023-05-14T02:06:09.169Z,8811.00
2023-05-14T02:07:09.211Z,8750.00
2023-05-14T02:08:09.252Z,8721.00
2023-05-14T02:09:09.279Z,8733.00
2023-05-14T02:10:09.327Z,8756.00
2023-05-14T02:11:10.215Z,8759.00
2023-05-14T02:12:09.423Z,8718.00
2023-05-14T02:13:09.448Z,8672.00
2023-05-14T02:14:09.526Z,8631.00
2023-05-14T02:15:09.569Z,8560.00
2023-05-14T02:16:09.653Z,8506.00
2023-05-14T02:17:10.197Z,8533.00
2023-05-14T02:18:09.808Z,8605.00
2023-05-14T02:19:09.741Z,8688.00
2023-05-14T02:20:09.768Z,8713.00
2023-05-14T02:21:09.786Z,8762.00
2023-05-14T02:22:09.862Z,8745.00
2023-05-14T02:23:09.894Z,8821.00
2023-05-14T02:24:09.948Z,8899.00
2023-05-14T02:25:10.015Z,8882.00
2023-05-14T02:26:10.079Z,8858.00
2023-05-14T02:27:10.084Z,8875.00
2023-05-14T02:28:10.128Z,8819.00
2023-05-14T02:29:10.139Z,8789.00
2023-05-14T02:30:10.200Z,8913.00
2023-05-14T02:31:10.262Z,8920.00
2023-05-14T02:32:10.233Z,8969.00
2023-05-14T02:33:10.332Z,9066.00
2023-05-14T02:34:10.202Z,9135.00
2023-05-14T02:35:10.222Z,9268.00
2023-05-14T02:36:10.216Z,9172.00
2023-05-14T02:37:10.209Z,9008.00
2023-05-14T02:38:10.209Z,8925.00
2023-05-14T02:39:10.242Z,8915.00
2023-05-14T02:40:10.237Z,8893.00
2023-05-14T02:41:10.212Z,8936.00
2023-05-14T02:42:10.222Z,8995.00
2023-05-14T02:43:10.257Z,9030.00
2023-05-14T02:44:10.282Z,9023.00
2023-05-14T02:45:10.301Z,9035.00
2023-05-14T02:46:10.352Z,9084.00
2023-05-14T02:47:10.526Z,9133.00
2023-05-14T02:48:10.552Z,9180.00
2023-05-14T02:49:10.535Z,9142.00
2023-05-14T02:50:10.562Z,9168.00
2023-05-14T02:51:10.594Z,9121.00
2023-05-14T02:52:10.627Z,9007.00
2023-05-14T02:53:10.650Z,8997.00
2023-05-14T02:54:10.696Z,9029.00
2023-05-14T02:55:10.750Z,9030.00
2023-05-14T02:56:10.841Z,9009.00
2023-05-14T02:57:10.874Z,9044.00
2023-05-14T02:58:10.940Z,9093.00
2023-05-14T02:59:11.040Z,9197.00
2023-05-14T03:00:11.092Z,9258.00
2023-05-14T03:01:11.181Z,9293.00
2023-05-14T03:02:11.195Z,9349.00
2023-05-14T03:03:11.186Z,9380.00
2023-05-14T03:04:11.220Z,9360.00
2023-05-14T03:05:11.263Z,9274.00
2023-05-14T03:06:11.329Z,9226.00
2023-05-14T03:07:11.306Z,9149.00
2023-05-14T03:08:11.331Z,9140.00
2023-05-14T03:09:11.375Z,9126.00
2023-05-14T03:10:11.373Z,9120.00
2023-05-14T03:11:11.383Z,9156.00
2023-05-14T03:12:11.377Z,9178.00
2023-05-14T03:13:11.410Z,9162.00
2023-05-14T03:14:11.422Z,9160.00
2023-05-14T03:15:11.452Z,9217.00
2023-05-14T03:16:11.597Z,9323.00
2023-05-14T03:17:11.622Z,9328.00
2023-05-14T03:18:11.459Z,9332.00
2023-05-14T03:19:11.495Z,9363.00
2023-05-14T03:20:11.451Z,9420.00
2023-05-14T03:21:11.468Z,9482.00
2023-05-14T03:22:11.461Z,9573.00
2023-05-14T03:23:11.481Z,9634.00
2023-05-14T03:24:11.496Z,9654.00
2023-05-14T03:25:11.477Z,9678.00
2023-05-14T03:26:11.500Z,9642.00
2023-05-14T03:27:11.484Z,9608.00
2023-05-14T03:28:11.495Z,9601.00
2023-05-14T03:29:11.505Z,9586.00
2023-05-14T03:30:11.548Z,9563.00
2023-05-14T03:31:11.633Z,9530.00
2023-05-14T03:32:11.612Z,9543.00
2023-05-14T03:33:11.650Z,9591.00
2023-05-14T03:34:11.689Z,9607.00
2023-05-14T03:35:11.694Z,9591.00
2023-05-14T03:36:11.728Z,9547.00
2023-05-14T03:37:11.781Z,9617.00
2023-05-14T03:38:11.833Z,9642.00
2023-05-14T03:39:11.899Z,9644.00
2023-05-14T03:40:11.989Z,9642.00
2023-05-14T03:41:12.055Z,9618.00
2023-05-14T03:42:12.075Z,9580.00
2023-05-14T03:43:12.114Z,9586.00
2023-05-14T03:44:12.173Z,9546.00
2023-05-14T03:45:12.225Z,9530.00
2023-05-14T03:46:12.294Z,9540.00
2023-05-14T03:47:12.363Z,9515.00
2023-05-14T03:48:12.548Z,9523.00
2023-05-14T03:49:12.505Z,9531.00
2023-05-14T03:50:12.479Z,9534.00
2023-05-14T03:51:12.502Z,9515.00
2023-05-14T03:52:12.564Z,9509.00
2023-05-14T03:53:12.574Z,9489.00
2023-05-14T03:54:12.574Z,9500.00
2023-05-14T03:55:12.578Z,9497.00
2023-05-14T03:56:12.659Z,9486.00
2023-05-14T03:57:12.632Z,9471.00
2023-05-14T03:58:12.650Z,9444.00
2023-05-14T03:59:12.723Z,9405.00
2023-05-14T04:00:12.759Z,9303.00
2023-05-14T04:01:12.765Z,9275.00
2023-05-14T04:02:12.856Z,9274.00
2023-05-14T04:03:12.998Z,9266.00
2023-05-14T04:04:12.924Z,9254.00
2023-05-14T04:05:12.901Z,9229.00
2023-05-14T04:06:12.904Z,9267.00
2023-05-14T04:07:12.914Z,9305.00
2023-05-14T04:08:12.908Z,9368.00
2023-05-14T04:09:12.933Z,9385.00
2023-05-14T04:10:12.915Z,9347.00
2023-05-14T04:11:12.918Z,9351.00
2023-05-14T04:12:12.907Z,9363.00
2023-05-14T04:13:12.913Z,9411.00
2023-05-14T04:14:12.925Z,9444.00
2023-05-14T04:15:12.920Z,9455.00
2023-05-14T04:16:12.949Z,9436.00
2023-05-14T04:17:12.925Z,9432.00
2023-05-14T04:18:13.006Z,9443.00
2023-05-14T04:19:13.014Z,9445.00
2023-05-14T04:20:12.988Z,9497.00
2023-05-14T04:21:13.060Z,9550.00
2023-05-14T04:22:13.118Z,9615.00
2023-05-14T04:23:13.158Z,9651.00
2023-05-14T04:24:13.236Z,9665.00
2023-05-14T04:25:13.331Z,9673.00
2023-05-14T04:26:13.370Z,9591.00
2023-05-14T04:27:13.414Z,9414.00
2023-05-14T04:28:13.445Z,9125.00
2023-05-14T04:29:13.494Z,8863.00
2023-05-14T04:30:13.510Z,8982.00
2023-05-14T04:31:13.536Z,8987.00
2023-05-14T04:32:13.469Z,9010.00
2023-05-14T04:33:13.446Z,8991.00
2023-05-14T04:34:13.448Z,8957.00
2023-05-14T04:35:13.421Z,8953.00
2023-05-14T04:36:13.417Z,8927.00
2023-05-14T04:37:13.404Z,8903.00
2023-05-14T04:38:13.404Z,8855.00
2023-05-14T04:39:13.401Z,8861.00
2023-05-14T04:40:13.365Z,8924.00
2023-05-14T04:41:13.363Z,8951.00
2023-05-14T04:42:13.358Z,9018.00
2023-05-14T04:43:13.332Z,9063.00
2023-05-14T04:44:13.342Z,9102.00
2023-05-14T04:45:13.325Z,9203.00
2023-05-14T04:46:13.439Z,9328.00
2023-05-14T04:47:13.438Z,9371.00
2023-05-14T04:48:13.482Z,9304.00
2023-05-14T04:49:13.509Z,9296.00
2023-05-14T04:50:13.527Z,9142.00
2023-05-14T04:51:13.521Z,9125.00
2023-05-14T04:52:13.524Z,9264.00
2023-05-14T04:53:13.521Z,9387.00
2023-05-14T04:54:13.548Z,9475.00
2023-05-14T04:55:13.553Z,9456.00
2023-05-14T04:56:13.532Z,9488.00
2023-05-14T04:57:13.553Z,9364.00
2023-05-14T04:58:13.589Z,9226.00
2023-05-14T04:59:13.630Z,9087.00
2023-05-14T05:00:13.631Z,9002.00
2023-05-14T05:01:13.751Z,8880.00
2023-05-14T05:02:13.640Z,8876.00
2023-05-14T05:03:13.780Z,8906.00
2023-05-14T05:04:13.670Z,8909.00
2023-05-14T05:05:13.609Z,8922.00
2023-05-14T05:06:13.602Z,8869.00
2023-05-14T05:07:13.579Z,8660.00
2023-05-14T05:08:13.551Z,8438.00
2023-05-14T05:09:13.517Z,8357.00
2023-05-14T05:10:13.481Z,8343.00
2023-05-14T05:11:13.463Z,8291.00
2023-05-14T05:12:13.422Z,8293.00
2023-05-14T05:13:13.388Z,8285.00
2023-05-14T05:14:13.355Z,8301.00
2023-05-14T05:15:13.328Z,8403.00
2023-05-14T05:16:13.327Z,8504.00
2023-05-14T05:17:13.283Z,8471.00
2023-05-14T05:18:13.296Z,8331.00
2023-05-14T05:19:13.385Z,8351.00
2023-05-14T05:20:13.273Z,8332.00
2023-05-14T05:21:13.258Z,8257.00
2023-05-14T05:22:13.212Z,8204.00
2023-05-14T05:23:13.301Z,8057.00
2023-05-14T05:24:13.244Z,8086.00
2023-05-14T05:25:13.302Z,7902.00
2023-05-14T05:26:13.230Z,7513.00
2023-05-14T05:27:13.217Z,7299.00
2023-05-14T05:28:13.171Z,7288.00
2023-05-14T05:29:13.135Z,7070.00
2023-05-14T05:30:13.080Z,6876.00
2023-05-14T05:31:13.060Z,6828.00
2023-05-14T05:32:13.003Z,6983.00
2023-05-14T05:33:12.978Z,7055.00
2023-05-14T05:34:12.942Z,7049.00
2023-05-14T05:35:12.882Z,7082.00
2023-05-14T05:36:12.854Z,7028.00
2023-05-14T05:37:12.852Z,7045.00
2023-05-14T05:38:12.779Z,7166.00
2023-05-14T05:39:12.777Z,7341.00
2023-05-14T05:40:12.816Z,7553.00
2023-05-14T05:41:12.845Z,7695.00
2023-05-14T05:42:12.847Z,7706.00
2023-05-14T05:43:12.890Z,7611.00
2023-05-14T05:44:12.919Z,7578.00
2023-05-14T05:45:12.928Z,7655.00
2023-05-14T05:46:13.010Z,7682.00
2023-05-14T05:47:12.973Z,7698.00
2023-05-14T05:48:12.982Z,7731.00
2023-05-14T05:49:12.997Z,7835.00
2023-05-14T05:50:12.987Z,8222.00
2023-05-14T05:51:13.037Z,8471.00
2023-05-14T05:52:13.059Z,8596.00
2023-05-14T05:53:13.085Z,8905.00
2023-05-14T05:54:13.104Z,9120.00
2023-05-14T05:55:13.065Z,9123.00
2023-05-14T05:56:13.037Z,9152.00
2023-05-14T05:57:13.004Z,9075.00
2023-05-14T05:58:12.971Z,8425.00
2023-05-14T05:59:12.947Z,8018.00
2023-05-14T06:00:12.908Z,7865.00
2023-05-14T06:01:12.884Z,7759.00
2023-05-14T06:02:12.828Z,7763.00
2023-05-14T06:03:12.795Z,7541.00
2023-05-14T06:04:12.814Z,7330.00
2023-05-14T06:05:12.758Z,7070.00
2023-05-14T06:06:12.626Z,7107.00
2023-05-14T06:07:12.852Z,7091.00
2023-05-14T06:08:12.707Z,7020.00
2023-05-14T06:09:12.733Z,7041.00
2023-05-14T06:10:12.729Z,7348.00
2023-05-14T06:11:12.727Z,7540.00
2023-05-14T06:12:12.707Z,7627.00
2023-05-14T06:13:12.734Z,7559.00
2023-05-14T06:14:12.689Z,7521.00
2023-05-14T06:15:12.678Z,7453.00
2023-05-14T06:16:12.706Z,7358.00
2023-05-14T06:17:12.708Z,7171.00
2023-05-14T06:18:12.728Z,7225.00
2023-05-14T06:19:12.792Z,7281.00
2023-05-14T06:20:12.684Z,7042.00
2023-05-14T06:21:12.662Z,6926.00
2023-05-14T06:22:12.665Z,6474.00
2023-05-14T06:23:12.668Z,7847.00
2023-05-14T06:24:12.620Z,6659.00
2023-05-14T06:25:12.615Z,6117.00
2023-05-14T06:26:12.575Z,5904.00
2023-05-14T06:27:12.599Z,5818.00
2023-05-14T06:28:12.613Z,5805.00
2023-05-14T06:29:12.602Z,5992.00
2023-05-14T06:30:12.629Z,6783.00
2023-05-14T06:31:12.594Z,7051.00
2023-05-14T06:32:12.599Z,6791.00
2023-05-14T06:33:12.549Z,6605.00
2023-05-14T06:34:12.558Z,6352.00
2023-05-14T06:35:12.545Z,6260.00
2023-05-14T06:36:12.567Z,5779.00
2023-05-14T06:37:12.552Z,5721.00
2023-05-14T06:38:12.549Z,5728.00
2023-05-14T06:39:12.581Z,5719.00
2023-05-14T06:40:12.509Z,5719.00
2023-05-14T06:41:12.503Z,5852.00
2023-05-14T06:42:12.508Z,6007.00
2023-05-14T06:43:12.488Z,6013.00
2023-05-14T06:44:12.472Z,5655.00
2023-05-14T06:45:12.454Z,5470.00
2023-05-14T06:46:12.409Z,5274.00
2023-05-14T06:47:12.365Z,5304.00
2023-05-14T06:48:12.364Z,5309.00
2023-05-14T06:49:12.422Z,5400.00
2023-05-14T06:50:12.256Z,5506.00
2023-05-14T06:51:12.284Z,5567.00
2023-05-14T06:52:12.252Z,5558.00
2023-05-14T06:53:12.173Z,5290.00
2023-05-14T06:54:12.171Z,5175.00
2023-05-14T06:55:12.141Z,4908.00
2023-05-14T06:56:12.103Z,4818.00
2023-05-14T06:57:12.112Z,4609.00
2023-05-14T06:58:12.099Z,4685.00
2023-05-14T06:59:12.062Z,4806.00
2023-05-14T07:00:12.059Z,5067.00
2023-05-14T07:01:12.072Z,5170.00
2023-05-14T07:02:12.007Z,4823.00
2023-05-14T07:03:12.035Z,4584.00
2023-05-14T07:04:12.025Z,4643.00
2023-05-14T07:05:12.049Z,5040.00
2023-05-14T07:06:13.622Z,4737.00
2023-05-14T07:07:11.973Z,4362.00
2023-05-14T07:08:11.925Z,4240.00
2023-05-14T07:09:11.897Z,4140.00
2023-05-14T07:10:11.854Z,3857.00
2023-05-14T07:11:11.843Z,3754.00
2023-05-14T07:12:11.805Z,3941.00
2023-05-14T07:13:11.761Z,4189.00
2023-05-14T07:14:11.692Z,4181.00
2023-05-14T07:15:11.697Z,4189.00
2023-05-14T07:16:11.672Z,3855.00
2023-05-14T07:17:11.721Z,3526.00
2023-05-14T07:18:11.622Z,3316.00
2023-05-14T07:19:11.640Z,3395.00
2023-05-14T07:20:11.621Z,3331.00
2023-05-14T07:21:11.546Z,3216.00
2023-05-14T07:22:11.498Z,3336.00
2023-05-14T07:23:11.438Z,3016.00
2023-05-14T07:24:11.365Z,2957.00
2023-05-14T07:25:11.302Z,2815.00
2023-05-14T07:26:11.288Z,2615.00
2023-05-14T07:27:11.177Z,2596.00
2023-05-14T07:28:11.092Z,2375.00
2023-05-14T07:29:11.041Z,2594.00
2023-05-14T07:30:11.016Z,2450.00
2023-05-14T07:31:11.021Z,1746.00
2023-05-14T07:32:11.738Z,1232.00
2023-05-14T07:33:10.821Z,887.00
2023-05-14T07:34:10.680Z,936.00
2023-05-14T07:35:10.633Z,1074.00
2023-05-14T07:36:10.569Z,905.00
2023-05-14T07:37:10.634Z,580.00
2023-05-14T07:38:10.449Z,560.00
2023-05-14T07:39:10.400Z,815.00
2023-05-14T07:40:10.325Z,1294.00
2023-05-14T07:41:10.261Z,1660.00
2023-05-14T07:42:10.250Z,1721.00
2023-05-14T07:43:10.134Z,1403.00
2023-05-14T07:44:10.053Z,520.00
2023-05-14T07:45:09.964Z,457.00
2023-05-14T07:46:09.875Z,400.00
2023-05-14T07:47:09.833Z,400.00
2023-05-14T07:48:09.744Z,400.00
2023-05-14T07:49:09.621Z,400.00
2023-05-14T07:50:09.542Z,400.00
2023-05-14T07:51:09.489Z,400.00
2023-05-14T07:52:09.381Z,400.00
2023-05-14T07:53:09.304Z,400.00
2023-05-14T07:54:09.203Z,400.00
2023-05-14T07:55:09.132Z,400.00
2023-05-14T07:56:09.037Z,400.00
2023-05-14T07:57:09.005Z,400.00
2023-05-14T07:58:08.972Z,409.00
2023-05-14T07:59:08.943Z,557.00
2023-05-14T08:00:08.904Z,594.00
2023-05-14T08:01:08.887Z,652.00
2023-05-14T08:02:08.841Z,668.00
2023-05-14T08:03:08.845Z,557.00
2023-05-14T08:04:08.741Z,514.00
2023-05-14T08:05:08.644Z,604.00
2023-05-14T08:06:08.557Z,784.00
2023-05-14T08:07:08.519Z,864.00
2023-05-14T08:08:08.498Z,1023.00
2023-05-14T08:09:08.447Z,677.00
2023-05-14T08:10:08.439Z,521.00
2023-05-14T08:11:08.500Z,412.00
2023-05-14T08:12:08.367Z,449.00
2023-05-14T08:13:08.316Z,531.00
2023-05-14T08:14:08.250Z,837.00
2023-05-14T08:15:08.172Z,717.00
2023-05-14T08:16:08.075Z,661.00
2023-05-14T08:17:08.202Z,589.00
2023-05-14T08:18:08.041Z,578.00
2023-05-14T08:19:08.086Z,780.00
2023-05-14T08:20:07.883Z,1153.00
2023-05-14T08:21:07.819Z,1279.00
2023-05-14T08:22:07.786Z,578.00
2023-05-14T08:23:07.705Z,584.00
2023-05-14T08:24:07.690Z,661.00
2023-05-14T08:25:07.687Z,642.00
2023-05-14T08:26:07.656Z,400.00
2023-05-14T08:27:07.633Z,400.00
2023-05-14T08:28:07.486Z,400.00
2023-05-14T08:29:09.366Z,446.00
2023-05-14T08:30:08.279Z,459.00
2023-05-14T08:31:07.274Z,489.00
2023-05-14T08:32:19.347Z,464.00
2023-05-14T08:33:08.059Z,453.00
2023-05-14T08:34:06.954Z,400.00
2023-05-14T08:35:06.876Z,400.00
2023-05-14T08:36:06.782Z,400.00
2023-05-14T08:37:06.685Z,400.00
2023-05-14T08:38:06.595Z,400.00
2023-05-14T08:39:06.524Z,400.00
2023-05-14T08:40:06.426Z,400.00
2023-05-14T08:41:06.388Z,400.00
2023-05-14T08:42:06.333Z,400.00
2023-05-14T08:43:06.237Z,409.00
2023-05-14T08:44:06.179Z,451.00
2023-05-14T08:45:06.133Z,548.00
2023-05-14T08:46:05.961Z,628.00
2023-05-14T08:47:05.889Z,870.00
2023-05-14T08:48:05.901Z,986.00
2023-05-14T08:49:05.882Z,1222.00
2023-05-14T08:50:05.753Z,1366.00
2023-05-14T08:51:05.722Z,1481.00
2023-05-14T08:52:05.696Z,1357.00
2023-05-14T08:53:05.651Z,1389.00
2023-05-14T08:54:05.627Z,1665.00
2023-05-14T08:55:05.614Z,1954.00
2023-05-14T08:56:05.555Z,1905.00
2023-05-14T08:57:05.535Z,1846.00
2023-05-14T08:58:05.454Z,1872.00
2023-05-14T08:59:05.385Z,1689.00
2023-05-14T09:00:05.325Z,1580.00
2023-05-14T09:01:05.307Z,1605.00
2023-05-14T09:02:05.300Z,1693.00
2023-05-14T09:03:05.202Z,1718.00
2023-05-14T09:04:05.127Z,1649.00
2023-05-14T09:05:05.095Z,1106.00
2023-05-14T09:06:05.058Z,1050.00
2023-05-14T09:07:05.026Z,875.00
2023-05-14T09:08:04.998Z,681.00
2023-05-14T09:09:04.947Z,930.00
2023-05-14T09:10:04.888Z,1205.00
2023-05-14T09:11:04.825Z,716.00
2023-05-14T09:12:04.760Z,616.00
2023-05-14T09:13:04.726Z,546.00
2023-05-14T09:14:04.665Z,522.00
2023-05-14T09:15:04.629Z,455.00
2023-05-14T09:16:04.577Z,454.00
2023-05-14T09:17:04.831Z,400.00
2023-05-14T09:18:04.516Z,400.00
2023-05-14T09:19:04.479Z,400.00
2023-05-14T09:20:04.434Z,400.00
2023-05-14T09:21:04.266Z,400.00
2023-05-14T09:22:04.413Z,400.00
2023-05-14T09:23:04.226Z,400.00
2023-05-14T09:24:04.161Z,400.00
2023-05-14T09:25:04.139Z,400.00
2023-05-14T09:26:04.132Z,400.00
2023-05-14T09:27:04.346Z,414.00
2023-05-14T09:28:04.062Z,409.00
2023-05-14T09:29:04.081Z,578.00
2023-05-14T09:30:03.971Z,697.00
2023-05-14T09:31:03.925Z,659.00
2023-05-14T09:32:03.864Z,708.00
2023-05-14T09:33:03.741Z,704.00
2023-05-14T09:34:03.637Z,742.00
2023-05-14T09:35:03.564Z,882.00
2023-05-14T09:36:03.479Z,1042.00
2023-05-14T09:37:03.434Z,1160.00
2023-05-14T09:38:03.377Z,1004.00
2023-05-14T09:39:03.277Z,967.00
2023-05-14T09:40:03.205Z,1230.00
2023-05-14T09:41:03.115Z,1886.00
2023-05-14T09:42:03.036Z,2429.00
2023-05-14T09:43:02.957Z,2083.00
2023-05-14T09:44:04.667Z,1880.00
2023-05-14T09:45:02.846Z,1901.00
2023-05-14T09:46:02.771Z,1922.00
2023-05-14T09:47:02.718Z,1606.00
2023-05-14T09:48:02.891Z,1709.00
2023-05-14T09:49:02.574Z,2313.00
2023-05-14T09:50:02.532Z,2417.00
2023-05-14T09:51:04.073Z,2442.00
2023-05-14T09:52:02.378Z,2445.00
2023-05-14T09:53:02.374Z,2486.00
2023-05-14T09:54:02.274Z,2635.00
2023-05-14T09:55:02.216Z,3018.00
2023-05-14T09:56:02.202Z,3489.00
2023-05-14T09:57:02.185Z,3727.00
2023-05-14T09:58:02.149Z,3929.00
2023-05-14T09:59:02.149Z,3893.00
2023-05-14T10:00:02.103Z,3571.00
2023-05-14T10:01:02.120Z,3655.00
2023-05-14T10:02:02.063Z,3510.00
2023-05-14T10:03:02.101Z,2824.00
2023-05-14T10:04:02.047Z,2678.00
2023-05-14T10:05:01.958Z,2095.00
2023-05-14T10:06:01.948Z,1680.00
2023-05-14T10:07:01.924Z,1761.00
2023-05-14T10:08:01.942Z,1629.00
2023-05-14T10:09:01.954Z,1488.00
2023-05-14T10:10:01.990Z,1386.00
2023-05-14T10:11:01.986Z,1437.00
2023-05-14T10:12:01.991Z,1918.00
2023-05-14T10:13:01.956Z,1935.00
2023-05-14T10:14:01.935Z,1867.00
2023-05-14T10:15:01.935Z,2138.00
2023-05-14T10:16:01.910Z,2218.00
2023-05-14T10:17:01.973Z,2319.00
2023-05-14T10:18:01.965Z,2529.00
2023-05-14T10:19:01.898Z,2523.00
2023-05-14T10:20:01.906Z,2474.00
2023-05-14T10:21:01.912Z,2430.00
2023-05-14T10:22:01.878Z,2373.00
2023-05-14T10:23:01.845Z,2411.00
2023-05-14T10:24:01.844Z,2444.00
2023-05-14T10:25:01.792Z,2651.00
2023-05-14T10:26:01.776Z,2679.00
2023-05-14T10:27:01.720Z,2594.00
2023-05-14T10:28:01.748Z,2780.00
2023-05-14T10:29:01.715Z,3230.00
2023-05-14T10:30:01.687Z,3334.00
2023-05-14T10:31:01.721Z,3187.00
2023-05-14T10:32:01.701Z,3176.00
2023-05-14T10:33:01.707Z,3568.00
2023-05-14T10:34:01.688Z,3521.00
2023-05-14T10:35:01.665Z,3502.00
2023-05-14T10:36:01.681Z,3647.00
2023-05-14T10:37:01.713Z,4047.00
2023-05-14T10:38:01.674Z,4258.00
2023-05-14T10:39:01.665Z,4158.00
2023-05-14T10:40:01.634Z,4198.00
2023-05-14T10:41:01.642Z,4165.00
2023-05-14T10:42:01.601Z,4270.00
2023-05-14T10:43:01.607Z,4327.00
2023-05-14T10:44:01.583Z,4542.00
2023-05-14T10:45:01.538Z,4632.00
2023-05-14T10:46:01.515Z,4814.00
2023-05-14T10:47:01.556Z,4622.00
2023-05-14T10:48:01.512Z,4371.00
2023-05-14T10:49:01.466Z,4241.00
2023-05-14T10:50:01.429Z,3987.00
2023-05-14T10:51:01.433Z,3894.00
2023-05-14T10:52:01.369Z,3632.00
2023-05-14T10:53:01.382Z,3609.00
2023-05-14T10:54:01.302Z,3877.00
2023-05-14T10:55:03.174Z,3937.00
2023-05-14T10:56:01.285Z,3942.00
2023-05-14T10:57:01.182Z,4462.00
2023-05-14T10:58:01.188Z,4307.00
2023-05-14T10:59:01.121Z,4837.00
2023-05-14T11:00:01.205Z,5205.00
2023-05-14T11:01:01.039Z,5196.00
2023-05-14T11:02:01.067Z,5050.00
2023-05-14T11:03:01.070Z,3898.00
2023-05-14T11:04:00.938Z,3806.00
2023-05-14T11:05:00.881Z,4313.00
2023-05-14T11:06:00.865Z,4654.00
2023-05-14T11:07:00.785Z,4550.00
2023-05-14T11:08:00.765Z,4128.00
2023-05-14T11:09:00.678Z,3596.00
2023-05-14T11:10:00.734Z,3199.00
2023-05-14T11:11:00.705Z,2945.00
2023-05-14T11:12:00.586Z,2984.00
2023-05-14T11:13:00.505Z,3165.00
2023-05-14T11:14:00.463Z,3497.00
2023-05-14T11:15:00.372Z,3442.00
2023-05-14T11:16:08.789Z,3308.00
2023-05-14T11:17:01.313Z,3311.00
2023-05-14T11:18:00.318Z,3349.00
2023-05-14T11:19:00.131Z,3420.00
2023-05-14T11:20:00.089Z,3369.00
2023-05-14T11:20:59.979Z,3344.00
2023-05-14T11:21:59.830Z,3329.00
2023-05-14T11:22:59.755Z,2957.00
2023-05-14T11:23:59.665Z,3010.00
2023-05-14T11:24:59.549Z,3094.00
2023-05-14T11:25:59.467Z,3069.00
2023-05-14T11:26:59.467Z,2661.00
2023-05-14T11:27:59.272Z,2613.00
2023-05-14T11:28:59.245Z,2231.00
2023-05-14T11:29:59.225Z,1959.00
2023-05-14T11:30:59.172Z,2111.00
2023-05-14T11:31:59.126Z,2737.00
2023-05-14T11:33:00.697Z,2400.00
2023-05-14T11:33:58.948Z,2177.00
2023-05-14T11:34:58.854Z,1637.00
2023-05-14T11:35:58.752Z,1647.00
2023-05-14T11:36:58.728Z,1579.00
2023-05-14T11:37:58.656Z,1838.00
2023-05-14T11:38:58.568Z,1839.00
2023-05-14T11:39:58.478Z,1867.00
2023-05-14T11:40:58.426Z,1877.00
2023-05-14T11:41:58.354Z,1816.00
2023-05-14T11:42:58.294Z,1599.00
2023-05-14T11:43:58.195Z,1806.00
2023-05-14T11:44:58.075Z,1695.00
2023-05-14T11:45:58.010Z,1646.00
2023-05-14T11:46:57.893Z,1599.00
2023-05-14T11:47:58.015Z,1559.00
2023-05-14T11:48:57.833Z,1980.00
2023-05-14T11:49:57.746Z,2162.00
2023-05-14T11:50:57.611Z,1967.00
2023-05-14T11:51:57.602Z,1784.00
2023-05-14T11:52:57.834Z,1649.00
2023-05-14T11:53:57.520Z,1558.00
2023-05-14T11:54:57.429Z,1788.00
2023-05-14T11:55:57.341Z,1794.00
2023-05-14T11:56:57.236Z,1861.00
2023-05-14T11:57:57.153Z,1957.00
2023-05-14T11:58:57.050Z,2025.00
2023-05-14T11:59:56.957Z,2549.00
2023-05-14T12:00:56.880Z,2637.00
2023-05-14T12:01:56.780Z,2399.00
2023-05-14T12:02:56.831Z,2180.00
2023-05-14T12:03:56.677Z,2096.00
2023-05-14T12:04:56.529Z,1656.00
2023-05-14T12:05:56.421Z,1613.00
2023-05-14T12:06:56.341Z,1445.00
2023-05-14T12:07:56.283Z,1810.00